createdAt,value
2023-01-28T00:01:31.951Z,19.70
2023-01-28T00:04:00.305Z,18.80
2023-01-28T00:06:28.111Z,20.40
2023-01-28T00:08:56.851Z,19.10
2023-01-28T00:11:24.645Z,17.90
2023-01-28T00:13:52.789Z,17.80
2023-01-28T00:16:22.031Z,17.90
2023-01-28T00:18:50.053Z,19.30
2023-01-28T00:21:17.957Z,17.90
2023-01-28T00:23:50.430Z,18.70
2023-01-28T00:26:18.600Z,18.20
2023-01-28T00:28:47.790Z,18.10
2023-01-28T00:31:17.521Z,17.20
2023-01-28T00:33:45.992Z,17.60
2023-01-28T00:36:14.985Z,19.50
2023-01-28T00:38:43.654Z,19.70
2023-01-28T00:41:16.151Z,17.70
2023-01-28T00:43:44.716Z,18.90
2023-01-28T00:46:13.753Z,17.60
2023-01-28T00:48:42.540Z,19.30
2023-01-28T00:51:11.074Z,19.90
2023-01-28T00:53:39.525Z,18.60
2023-01-28T00:56:08.755Z,17.10
2023-01-28T00:58:37.130Z,17.70
2023-01-28T01:01:09.110Z,18.20
2023-01-28T01:03:37.938Z,18.70
2023-01-28T01:06:06.915Z,19.90
2023-01-28T01:08:35.355Z,17.90
2023-01-28T01:11:04.344Z,20.30
2023-01-28T01:13:34.421Z,17.30
2023-01-28T01:16:04.553Z,17.40
2023-01-28T01:18:33.751Z,18.80
2023-01-28T01:21:02.573Z,17.40
2023-01-28T01:23:31.273Z,20.70
2023-01-28T01:25:59.283Z,18.60
2023-01-28T01:28:27.472Z,17.40
2023-01-28T01:31:00.433Z,18.40
2023-01-28T01:33:29.565Z,18.60
2023-01-28T01:35:57.780Z,18.90
2023-01-28T01:38:27.920Z,18.50
2023-01-28T01:40:57.871Z,17.00
2023-01-28T01:43:26.461Z,17.50
2023-01-28T01:45:56.399Z,16.50
2023-01-28T01:48:27.425Z,14.70
2023-01-28T01:50:57.440Z,20.40
2023-01-28T01:53:26.589Z,19.40
2023-01-28T01:55:57.325Z,18.30
2023-01-28T01:58:27.567Z,20.20
2023-01-28T02:00:55.458Z,17.30
2023-01-28T02:03:26.835Z,15.60
2023-01-28T02:05:55.256Z,16.50
2023-01-28T02:08:23.260Z,17.00
2023-01-28T02:10:54.239Z,17.60
2023-01-28T02:13:24.121Z,18.10
2023-01-28T02:15:52.176Z,19.40
2023-01-28T02:18:20.206Z,17.70
2023-01-28T02:21:05.038Z,18.50
2023-01-28T02:23:39.357Z,17.20
2023-01-28T02:26:26.624Z,17.40
2023-01-28T02:28:58.256Z,17.20
2023-01-28T02:31:30.048Z,16.90
2023-01-28T02:33:59.804Z,18.90
2023-01-28T02:36:30.702Z,17.10
2023-01-28T02:39:00.871Z,17.40
2023-01-28T02:41:30.089Z,20.10
2023-01-28T02:43:57.854Z,17.80
2023-01-28T02:46:53.162Z,15.70
2023-01-28T02:49:23.401Z,17.30
2023-01-28T02:52:15.098Z,18.00
2023-01-28T02:54:46.600Z,18.60
2023-01-28T02:57:19.029Z,19.60
2023-01-28T03:02:28.130Z,16.30
2023-01-28T03:05:00.788Z,15.70
2023-01-28T03:07:31.314Z,17.10
2023-01-28T03:10:03.958Z,17.20
2023-01-28T03:12:51.125Z,18.20
2023-01-28T03:15:39.209Z,16.20
2023-01-28T03:18:27.155Z,17.10
2023-01-28T03:21:15.539Z,18.00
2023-01-28T03:24:07.283Z,18.20
2023-01-28T03:26:57.322Z,17.10
2023-01-28T03:29:44.906Z,17.60
2023-01-28T03:32:33.115Z,16.10
2023-01-28T03:35:19.842Z,17.60
2023-01-28T03:37:47.921Z,18.10
2023-01-28T03:40:22.068Z,18.10
2023-01-28T03:42:51.826Z,16.20
2023-01-28T03:45:40.160Z,18.20
2023-01-28T03:48:08.123Z,18.10
2023-01-28T03:50:36.221Z,18.20
2023-01-28T03:53:15.901Z,17.80
2023-01-28T03:55:52.940Z,16.90
2023-01-28T03:58:21.218Z,18.50
2023-01-28T04:00:49.002Z,18.40
2023-01-28T04:03:18.657Z,15.70
2023-01-28T04:05:59.305Z,17.40
2023-01-28T04:08:30.090Z,17.40
2023-01-28T04:11:33.954Z,17.60
2023-01-28T04:14:04.833Z,16.40
2023-01-28T04:16:46.204Z,18.60
2023-01-28T04:19:14.895Z,16.50
2023-01-28T04:21:43.779Z,18.10
2023-01-28T04:24:11.951Z,19.00
2023-01-28T04:26:40.646Z,17.90
2023-01-28T04:29:08.506Z,17.80
2023-01-28T04:31:38.048Z,17.90
2023-01-28T04:34:24.200Z,17.90
2023-01-28T04:36:59.442Z,16.70
2023-01-28T04:39:59.971Z,17.60
2023-01-28T04:42:54.066Z,18.30
2023-01-28T04:45:42.230Z,17.10
2023-01-28T04:48:31.263Z,15.60
2023-01-28T04:51:20.948Z,19.60
2023-01-28T04:54:18.914Z,17.50
2023-01-28T04:56:47.283Z,18.70
2023-01-28T04:59:15.153Z,17.90
2023-01-28T05:01:45.511Z,15.00
2023-01-28T05:04:13.652Z,14.60
2023-01-28T05:06:41.428Z,16.70
2023-01-28T05:09:24.033Z,16.80
2023-01-28T05:11:54.022Z,14.70
2023-01-28T05:14:21.783Z,16.00
2023-01-28T05:19:33.028Z,14.40
2023-01-28T05:22:01.857Z,17.30
2023-01-28T05:24:37.815Z,14.60
2023-01-28T05:27:06.969Z,17.80
2023-01-28T05:29:34.827Z,14.10
2023-01-28T05:32:03.918Z,14.50
2023-01-28T05:34:32.490Z,14.70
2023-01-28T05:37:06.117Z,17.20
2023-01-28T05:39:37.638Z,16.20
2023-01-28T05:42:06.425Z,15.80
2023-01-28T05:44:37.556Z,18.80
2023-01-28T05:47:16.014Z,17.30
2023-01-28T05:49:53.454Z,15.50
2023-01-28T05:52:40.997Z,14.90
2023-01-28T05:55:18.110Z,14.90
2023-01-28T05:57:48.749Z,15.60
2023-01-28T06:00:19.878Z,15.30
2023-01-28T06:02:48.263Z,15.20
2023-01-28T06:05:17.480Z,14.90
2023-01-28T06:07:46.512Z,15.20
2023-01-28T06:10:17.496Z,14.40
2023-01-28T06:12:46.136Z,14.70
2023-01-28T06:15:33.074Z,15.10
2023-01-28T06:18:14.127Z,14.10
2023-01-28T06:20:42.647Z,12.50
2023-01-28T06:23:11.096Z,12.70
2023-01-28T06:25:39.779Z,14.30
2023-01-28T06:28:12.144Z,14.20
2023-01-28T06:30:40.377Z,14.20
2023-01-28T06:33:08.594Z,14.30
2023-01-28T06:35:37.033Z,13.50
2023-01-28T06:38:05.216Z,13.20
2023-01-28T06:40:33.728Z,13.60
2023-01-28T06:43:02.124Z,14.00
2023-01-28T06:45:30.221Z,13.80
2023-01-28T06:47:58.673Z,14.20
2023-01-28T06:50:26.958Z,12.30
2023-01-28T06:52:54.870Z,14.10
2023-01-28T06:55:22.785Z,13.70
2023-01-28T06:57:51.126Z,12.80
2023-01-28T07:00:20.123Z,13.80
2023-01-28T07:02:47.936Z,14.50
2023-01-28T07:05:16.220Z,12.80
2023-01-28T07:07:45.088Z,13.80
2023-01-28T07:10:13.242Z,12.90
2023-01-28T07:12:41.753Z,13.40
2023-01-28T07:15:11.257Z,13.70
2023-01-28T07:17:40.312Z,13.90
2023-01-28T07:20:12.634Z,12.50
2023-01-28T07:22:41.581Z,13.90
2023-01-28T07:25:11.394Z,12.50
2023-01-28T07:27:39.464Z,11.70
2023-01-28T07:30:08.775Z,14.70
2023-01-28T07:32:36.988Z,13.60
2023-01-28T07:35:05.927Z,14.00
2023-01-28T07:37:33.697Z,13.60
2023-01-28T07:40:02.012Z,13.80
2023-01-28T07:42:29.905Z,13.00
2023-01-28T07:44:58.647Z,14.50
2023-01-28T07:47:26.943Z,16.70
2023-01-28T07:49:54.871Z,13.70
2023-01-28T07:52:22.843Z,13.80
2023-01-28T07:54:51.639Z,13.20
2023-01-28T07:57:23.085Z,14.50
2023-01-28T07:59:51.360Z,12.00
2023-01-28T08:02:19.581Z,13.20
2023-01-28T08:04:47.835Z,11.50
2023-01-28T08:07:15.870Z,12.40
2023-01-28T08:09:44.007Z,12.60
2023-01-28T08:12:13.310Z,14.20
2023-01-28T08:14:41.585Z,13.10
2023-01-28T08:17:09.538Z,12.20
2023-01-28T08:19:37.417Z,11.50
2023-01-28T08:22:05.250Z,10.50
2023-01-28T08:24:33.381Z,12.50
2023-01-28T08:27:01.166Z,10.60
2023-01-28T08:29:29.017Z,11.20
2023-01-28T08:31:57.210Z,9.70
2023-01-28T08:34:25.056Z,9.40
2023-01-28T08:36:52.959Z,8.80
2023-01-28T08:39:21.038Z,9.90
2023-01-28T08:41:49.221Z,10.60
2023-01-28T08:44:17.131Z,10.90
2023-01-28T08:53:57.536Z,12.00
2023-01-28T08:56:25.775Z,10.90
2023-01-28T08:58:53.891Z,10.20
2023-01-28T09:01:22.206Z,10.90
2023-01-28T09:03:50.122Z,11.00
2023-01-28T09:06:17.946Z,9.70
2023-01-28T09:08:45.859Z,10.40
2023-01-28T09:11:14.000Z,11.20
2023-01-28T09:13:41.768Z,10.30
2023-01-28T09:16:10.676Z,10.50
2023-01-28T09:18:38.612Z,11.10
2023-01-28T09:21:08.220Z,10.50
2023-01-28T09:23:36.968Z,11.00
2023-01-28T09:26:06.339Z,8.70
2023-01-28T09:28:34.203Z,9.40
2023-01-28T09:31:03.265Z,10.20
2023-01-28T09:33:31.705Z,11.40
2023-01-28T09:36:00.763Z,10.50
2023-01-28T09:38:30.653Z,9.90
2023-01-28T09:40:58.961Z,10.30
2023-01-28T09:43:40.721Z,9.20
2023-01-28T09:46:11.394Z,11.30
2023-01-28T09:48:40.843Z,9.60
2023-01-28T09:51:10.486Z,11.50
2023-01-28T09:53:43.400Z,11.10
2023-01-28T09:56:14.035Z,9.10
2023-01-28T09:58:42.804Z,9.30
2023-01-28T10:01:20.598Z,8.90
2023-01-28T10:03:53.209Z,10.00
2023-01-28T10:06:25.918Z,9.00
2023-01-28T10:09:12.978Z,10.00
2023-01-28T10:11:49.651Z,10.20
2023-01-28T10:14:21.687Z,9.20
2023-01-28T10:16:53.777Z,10.20
2023-01-28T10:19:27.573Z,9.60
2023-01-28T10:22:01.273Z,10.90
2023-01-28T10:24:33.501Z,10.30
2023-01-28T10:27:05.360Z,9.20
2023-01-28T10:29:36.454Z,9.80
2023-01-28T10:32:15.633Z,9.50
2023-01-28T10:34:46.313Z,10.30
2023-01-28T10:37:17.867Z,10.80
2023-01-28T10:39:48.908Z,10.00
2023-01-28T10:42:30.391Z,10.70
2023-01-28T10:45:03.488Z,9.60
2023-01-28T10:47:39.534Z,11.60
2023-01-28T10:50:16.500Z,9.90
2023-01-28T10:52:56.047Z,10.10
2023-01-28T10:55:28.242Z,10.70
2023-01-28T10:57:59.710Z,10.50
2023-01-28T11:00:32.709Z,10.50
2023-01-28T11:03:04.209Z,11.00
2023-01-28T11:05:35.037Z,10.20
2023-01-28T11:08:06.760Z,9.80
2023-01-28T11:10:38.266Z,10.60
2023-01-28T11:13:16.857Z,10.00
2023-01-28T11:15:51.119Z,10.10
2023-01-28T11:18:25.378Z,11.10
2023-01-28T11:20:57.477Z,11.80
2023-01-28T11:23:29.272Z,11.50
2023-01-28T11:26:05.381Z,10.20
2023-01-28T11:28:36.825Z,11.90
2023-01-28T11:31:08.067Z,10.20
2023-01-28T11:33:40.348Z,10.10
2023-01-28T11:36:15.585Z,10.50
2023-01-28T11:38:55.639Z,11.00
2023-01-28T11:41:29.257Z,12.20
2023-01-28T11:44:01.567Z,11.20
2023-01-28T11:46:40.730Z,11.90
2023-01-28T11:49:14.579Z,10.90
2023-01-28T11:51:49.416Z,11.90
2023-01-28T11:54:29.685Z,10.30
2023-01-28T11:57:05.915Z,12.90
2023-01-28T11:59:47.572Z,12.80
2023-01-28T12:04:59.145Z,11.20
2023-01-28T12:07:35.237Z,13.20
2023-01-28T12:10:20.485Z,12.60
2023-01-28T12:13:15.168Z,12.60
2023-01-28T12:16:26.343Z,14.90
2023-01-28T12:19:20.586Z,13.80
2023-01-28T12:22:26.876Z,15.20
2023-01-28T12:25:06.303Z,13.60
2023-01-28T12:27:43.210Z,14.20
2023-01-28T12:30:20.970Z,14.40
2023-01-28T12:33:05.919Z,14.60
2023-01-28T12:35:52.734Z,13.80
2023-01-28T12:38:29.233Z,15.70
2023-01-28T12:41:08.785Z,14.30
2023-01-28T12:43:44.953Z,14.20
2023-01-28T12:46:22.295Z,12.50
2023-01-28T12:49:02.697Z,14.20
2023-01-28T12:51:50.101Z,13.70
2023-01-28T12:54:33.436Z,12.80
2023-01-28T12:57:22.019Z,13.30
2023-01-28T13:00:18.228Z,12.60
2023-01-28T13:03:19.726Z,13.90
2023-01-28T13:05:57.132Z,13.40
2023-01-28T13:08:32.779Z,12.30
2023-01-28T13:11:05.538Z,13.20
2023-01-28T13:13:36.973Z,12.70
2023-01-28T13:16:09.444Z,12.20
2023-01-28T13:18:46.725Z,12.10
2023-01-28T13:21:48.605Z,13.00
2023-01-28T13:24:29.254Z,12.80
2023-01-28T13:27:00.338Z,12.70
2023-01-28T13:29:32.428Z,12.00
2023-01-28T13:32:08.908Z,11.00
2023-01-28T13:34:40.950Z,12.10
2023-01-28T13:37:20.390Z,13.10
2023-01-28T13:39:53.617Z,11.60
2023-01-28T13:42:25.730Z,12.80
2023-01-28T13:44:57.701Z,11.20
2023-01-28T13:47:32.368Z,12.90
2023-01-28T13:50:04.783Z,10.70
2023-01-28T13:52:38.053Z,11.20
2023-01-28T13:55:30.377Z,10.50
2023-01-28T13:58:22.047Z,11.30
2023-01-28T14:01:12.998Z,12.20
2023-01-28T14:03:53.370Z,11.50
2023-01-28T14:06:31.412Z,12.10
2023-01-28T14:09:16.703Z,12.50
2023-01-28T14:11:58.291Z,12.00
2023-01-28T14:14:41.563Z,11.20
2023-01-28T14:17:15.727Z,11.60
2023-01-28T14:19:47.178Z,10.30
2023-01-28T14:22:19.386Z,10.30
2023-01-28T14:24:50.398Z,10.30
2023-01-28T14:27:25.106Z,10.60
2023-01-28T14:30:04.746Z,13.10
2023-01-28T14:32:35.875Z,11.90
2023-01-28T14:35:09.999Z,14.10
2023-01-28T14:37:41.530Z,13.90
2023-01-28T14:40:16.580Z,12.20
2023-01-28T14:42:49.478Z,12.30
2023-01-28T14:45:26.340Z,12.10
2023-01-28T14:48:02.765Z,13.30
2023-01-28T14:50:38.297Z,14.80
2023-01-28T14:53:21.771Z,18.70
2023-01-28T14:55:57.614Z,18.50
2023-01-28T14:58:32.572Z,18.50
2023-01-28T15:01:03.513Z,19.10
2023-01-28T15:03:46.587Z,18.80
2023-01-28T15:06:18.485Z,23.00
2023-01-28T15:08:51.477Z,23.30
2023-01-28T15:11:24.677Z,19.90
2023-01-28T15:14:01.278Z,22.00
2023-01-28T15:16:35.872Z,19.80
2023-01-28T15:19:10.019Z,22.30
2023-01-28T15:21:45.265Z,24.40
2023-01-28T15:24:18.670Z,22.80
2023-01-28T15:29:32.394Z,21.70
2023-01-28T15:32:04.780Z,23.00
2023-01-28T15:34:38.855Z,23.40
2023-01-28T15:37:13.662Z,24.50
2023-01-28T15:39:45.161Z,23.30
2023-01-28T15:42:23.238Z,24.60
2023-01-28T15:44:54.686Z,25.90
2023-01-28T15:47:27.269Z,24.70
2023-01-28T15:50:00.019Z,23.40
2023-01-28T15:52:35.632Z,24.90
2023-01-28T15:55:07.791Z,26.30
2023-01-28T15:57:43.579Z,26.50
2023-01-28T16:00:20.847Z,26.50
2023-01-28T16:02:56.761Z,23.80
2023-01-28T16:05:29.836Z,22.20
2023-01-28T16:08:03.452Z,21.20
2023-01-28T16:10:34.563Z,22.70
2023-01-28T16:13:05.952Z,23.20
2023-01-28T16:15:38.915Z,24.30
2023-01-28T16:18:21.682Z,23.70
2023-01-28T16:20:54.076Z,22.70
2023-01-28T16:23:26.839Z,22.40
2023-01-28T16:26:06.521Z,24.40
2023-01-28T16:28:38.075Z,23.60
2023-01-28T16:31:13.201Z,24.30
2023-01-28T16:33:52.396Z,23.80
2023-01-28T16:36:24.199Z,23.40
2023-01-28T16:38:54.734Z,25.50
2023-01-28T16:41:28.602Z,27.40
2023-01-28T16:44:01.318Z,28.00
2023-01-28T16:46:33.703Z,26.70
2023-01-28T16:49:05.092Z,25.10
2023-01-28T16:51:37.632Z,25.30
2023-01-28T16:54:08.340Z,27.30
2023-01-28T16:56:45.550Z,28.00
2023-01-28T16:59:17.720Z,26.90
2023-01-28T17:01:53.998Z,27.80
2023-01-28T17:04:25.162Z,25.10
2023-01-28T17:07:00.352Z,25.50
2023-01-28T17:09:40.800Z,25.70
2023-01-28T17:12:16.316Z,28.20
2023-01-28T17:14:51.200Z,25.70
2023-01-28T17:17:22.729Z,28.70
2023-01-28T17:19:53.179Z,25.60
2023-01-28T17:22:24.503Z,27.50
2023-01-28T17:24:55.063Z,27.50
2023-01-28T17:27:30.363Z,28.20
2023-01-28T17:30:01.114Z,28.30
2023-01-28T17:32:32.153Z,27.00
2023-01-28T17:35:08.065Z,26.80
2023-01-28T17:37:43.806Z,26.70
2023-01-28T17:40:15.573Z,27.10
2023-01-28T17:42:46.550Z,28.30
2023-01-28T17:45:17.935Z,26.00
2023-01-28T17:47:49.491Z,26.70
2023-01-28T17:50:20.689Z,30.30
2023-01-28T17:52:59.315Z,28.30
2023-01-28T17:55:34.709Z,28.10
2023-01-28T17:58:08.463Z,30.40
2023-01-28T18:00:39.594Z,29.70
2023-01-28T18:03:13.565Z,31.30
2023-01-28T18:05:44.655Z,29.30
2023-01-28T18:08:15.436Z,28.00
2023-01-28T18:10:55.333Z,31.70
2023-01-28T18:13:26.583Z,32.30
2023-01-28T18:15:57.337Z,30.20
2023-01-28T18:18:28.862Z,30.20
2023-01-28T18:21:00.224Z,30.30
2023-01-28T18:23:31.625Z,33.30
2023-01-28T18:26:03.649Z,31.50
2023-01-28T18:28:35.952Z,31.10
2023-01-28T18:31:07.833Z,33.00
2023-01-28T18:33:44.175Z,31.60
2023-01-28T18:36:15.157Z,31.70
2023-01-28T18:38:46.630Z,31.90
2023-01-28T18:41:17.473Z,31.70
2023-01-28T18:43:48.588Z,32.10
2023-01-28T18:46:19.934Z,33.80
2023-01-28T18:48:55.078Z,31.50
2023-01-28T18:51:30.759Z,32.10
2023-01-28T18:54:03.319Z,33.00
2023-01-28T18:56:38.195Z,29.50
2023-01-28T18:59:11.460Z,31.10
2023-01-28T19:01:43.124Z,32.90
2023-01-28T19:04:19.340Z,30.50
2023-01-28T19:06:54.511Z,33.50
2023-01-28T19:09:26.121Z,32.60
2023-01-28T19:11:56.905Z,33.30
2023-01-28T19:14:27.908Z,31.50
2023-01-28T19:16:59.142Z,31.10
2023-01-28T19:19:30.498Z,30.50
2023-01-28T19:22:10.576Z,31.20
2023-01-28T19:24:46.083Z,32.10
2023-01-28T19:27:17.320Z,31.20
2023-01-28T19:29:48.898Z,31.80
2023-01-28T19:32:24.221Z,32.30
2023-01-28T19:34:55.394Z,31.50
2023-01-28T19:37:25.842Z,33.70
2023-01-28T19:39:57.119Z,31.20
2023-01-28T19:42:27.572Z,31.90
2023-01-28T19:44:58.783Z,30.90
2023-01-28T19:47:29.753Z,31.20
2023-01-28T19:50:01.118Z,34.70
2023-01-28T19:52:31.931Z,33.90
2023-01-28T19:55:07.692Z,31.50
2023-01-28T19:57:38.632Z,32.70
2023-01-28T20:00:12.756Z,30.10
2023-01-28T20:02:43.779Z,34.00
2023-01-28T20:05:15.545Z,31.70
2023-01-28T20:07:46.643Z,30.30
2023-01-28T20:10:22.050Z,31.80
2023-01-28T20:12:53.358Z,29.70
2023-01-28T20:15:24.507Z,30.70
2023-01-28T20:17:55.764Z,30.60
2023-01-28T20:20:26.497Z,27.90
2023-01-28T20:23:06.036Z,28.90
2023-01-28T20:25:36.857Z,28.80
2023-01-28T20:28:08.519Z,28.40
2023-01-28T20:30:39.309Z,29.80
2023-01-28T20:33:10.808Z,27.50
2023-01-28T20:35:41.438Z,27.60
2023-01-28T20:38:12.749Z,25.90
2023-01-28T20:40:44.288Z,26.30
2023-01-28T20:43:15.264Z,26.60
2023-01-28T20:45:46.003Z,27.00
2023-01-28T20:48:22.067Z,24.40
2023-01-28T20:50:57.877Z,22.00
2023-01-28T20:53:42.968Z,22.20
2023-01-28T20:56:16.473Z,21.40
2023-01-28T20:58:49.570Z,24.20
2023-01-28T21:01:26.218Z,25.00
2023-01-28T21:03:57.961Z,22.30
2023-01-28T21:06:29.018Z,20.70
2023-01-28T21:09:00.111Z,21.30
2023-01-28T21:11:35.231Z,20.40
2023-01-28T21:14:06.561Z,19.60
2023-01-28T21:16:42.488Z,18.60
2023-01-28T21:19:13.562Z,19.30
2023-01-28T21:21:45.723Z,18.80
2023-01-28T21:24:20.793Z,17.60
2023-01-28T21:26:52.619Z,18.80
2023-01-28T21:29:23.144Z,16.90
2023-01-28T21:32:03.098Z,15.80
2023-01-28T21:34:34.243Z,17.20
2023-01-28T21:37:04.869Z,16.20
2023-01-28T21:39:36.427Z,18.60
2023-01-28T21:42:07.305Z,15.90
2023-01-28T21:44:38.574Z,14.70
2023-01-28T21:47:09.336Z,16.70
2023-01-28T21:49:40.404Z,14.60
2023-01-28T21:52:11.163Z,15.10
2023-01-28T21:54:42.351Z,16.50
2023-01-28T21:57:13.442Z,15.90
2023-01-28T21:59:46.711Z,17.20
2023-01-28T22:02:17.834Z,17.60
2023-01-28T22:04:50.062Z,16.10
2023-01-28T22:07:21.833Z,15.20
2023-01-28T22:09:53.151Z,16.00
2023-01-28T22:12:24.291Z,18.10
2023-01-28T22:14:55.738Z,17.30
2023-01-28T22:17:26.742Z,15.30
2023-01-28T22:19:57.673Z,16.50
2023-01-28T22:22:28.198Z,16.00
2023-01-28T22:25:00.129Z,14.90
2023-01-28T22:27:31.211Z,16.20
2023-01-28T22:30:02.393Z,15.10
2023-01-28T22:32:33.186Z,14.40
2023-01-28T22:35:05.196Z,16.10
2023-01-28T22:37:35.979Z,14.80
2023-01-28T22:40:07.848Z,15.70
2023-01-28T22:42:38.572Z,16.80
2023-01-28T22:45:11.208Z,18.50
2023-01-28T22:47:41.888Z,17.00
2023-01-28T22:50:14.276Z,15.20
2023-01-28T22:52:45.338Z,15.00
2023-01-28T22:55:16.950Z,16.80
2023-01-28T22:57:47.852Z,18.10
2023-01-28T23:00:21.039Z,17.60
2023-01-28T23:05:21.925Z,16.40
2023-01-28T23:07:52.868Z,16.80
2023-01-28T23:10:24.527Z,17.50
2023-01-28T23:12:55.127Z,17.70
2023-01-28T23:15:43.921Z,15.20
2023-01-28T23:18:34.920Z,15.40
2023-01-28T23:21:24.896Z,14.00
2023-01-28T23:24:13.394Z,13.90
2023-01-28T23:26:44.490Z,14.70
2023-01-28T23:29:15.166Z,15.30
2023-01-28T23:31:47.942Z,15.80
2023-01-28T23:34:18.925Z,14.50
2023-01-28T23:36:50.725Z,13.70
2023-01-28T23:39:21.750Z,13.30
2023-01-28T23:41:53.023Z,12.40
2023-01-28T23:44:25.887Z,12.60
2023-01-28T23:46:57.068Z,14.00
2023-01-28T23:49:27.843Z,13.50
2023-01-28T23:51:58.995Z,12.00
2023-01-28T23:54:29.823Z,11.70
2023-01-28T23:57:01.224Z,11.70
2023-01-28T23:59:33.402Z,10.60
